Terminal Aerodrome Forecast
Issued by NWS Bismarck, ND

Home | Current Version | Previous Version | Text Only | Print | Product List | Glossary Off
Versions: 1 2 3 4 5 6 7 8 9 10 11 12 13 14 15 16 17

000
FTUS43 KBIS 200000 AAA
TAFISN
TAF AMD
KISN 200002Z 2000/2024 24009KT P6SM SCT090
      TEMPO 2000/2003 5SM HZ
     FM201500 27017G27KT P6SM SCT090=

USA.gov is the U.S. government's official web portal to all federal, state and local government web resources and services.